createdAt,value
2023-01-18T00:02:46.951Z,3.37
2023-01-18T00:05:33.909Z,3.57
2023-01-18T00:08:19.289Z,3.80
2023-01-18T00:11:13.238Z,3.70
2023-01-18T00:13:58.742Z,3.23
2023-01-18T00:16:43.944Z,3.30
2023-01-18T00:19:29.136Z,3.63
2023-01-18T00:22:14.392Z,3.03
2023-01-18T00:24:59.717Z,3.70
2023-01-18T00:27:50.487Z,3.40
2023-01-18T00:30:35.895Z,3.20
2023-01-18T00:33:21.392Z,3.27
2023-01-18T00:36:06.908Z,3.30
2023-01-18T00:38:54.188Z,3.10
2023-01-18T00:41:59.896Z,3.07
2023-01-18T00:44:45.365Z,3.40
2023-01-18T00:47:30.542Z,3.33
2023-01-18T00:50:15.927Z,2.87
2023-01-18T00:53:01.125Z,3.00
2023-01-18T00:55:47.074Z,3.20
2023-01-18T00:58:32.951Z,3.40
2023-01-18T01:01:18.321Z,2.80
2023-01-18T01:04:22.502Z,3.20
2023-01-18T01:07:07.548Z,3.05
2023-01-18T01:09:52.853Z,3.03
2023-01-18T01:12:57.041Z,2.73
2023-01-18T01:16:01.016Z,3.27
2023-01-18T01:19:04.754Z,3.10
2023-01-18T01:22:08.575Z,3.10
2023-01-18T01:27:57.609Z,2.65
2023-01-18T01:30:44.020Z,3.00
2023-01-18T01:33:31.789Z,3.03
2023-01-18T01:36:19.849Z,3.33
2023-01-18T01:39:07.127Z,2.87
2023-01-18T01:41:52.953Z,2.90
2023-01-18T01:44:52.292Z,2.87
2023-01-18T01:47:41.208Z,3.00
2023-01-18T01:50:35.369Z,2.63
2023-01-18T01:53:21.089Z,2.80
2023-01-18T01:56:07.591Z,2.80
2023-01-18T01:58:58.961Z,2.77
2023-01-18T02:01:46.394Z,3.37
2023-01-18T02:04:33.181Z,3.03
2023-01-18T02:07:18.525Z,2.80
2023-01-18T02:10:05.395Z,2.90
2023-01-18T02:12:53.612Z,2.87
2023-01-18T02:16:16.678Z,2.87
2023-01-18T02:19:28.795Z,2.77
2023-01-18T02:22:32.504Z,2.80
2023-01-18T02:25:36.364Z,2.60
2023-01-18T02:28:29.526Z,3.10
2023-01-18T02:31:21.812Z,2.55
2023-01-18T02:34:29.295Z,2.87
2023-01-18T02:37:24.424Z,2.73
2023-01-18T02:40:16.403Z,2.50
2023-01-18T02:43:25.029Z,2.80
2023-01-18T02:46:32.920Z,2.53
2023-01-18T02:49:22.570Z,2.20
2023-01-18T02:52:08.504Z,2.67
2023-01-18T02:54:53.885Z,2.50
2023-01-18T02:57:40.353Z,2.90
2023-01-18T03:00:27.936Z,2.60
2023-01-18T03:03:16.332Z,2.70
2023-01-18T03:06:05.652Z,2.37
2023-01-18T03:08:55.500Z,2.87
2023-01-18T03:12:03.060Z,2.70
2023-01-18T03:15:08.494Z,2.60
2023-01-18T03:17:58.239Z,2.67
2023-01-18T03:20:51.989Z,2.90
2023-01-18T03:23:42.519Z,2.70
2023-01-18T03:26:28.595Z,2.57
2023-01-18T03:29:34.032Z,3.07
2023-01-18T03:32:38.363Z,2.67
2023-01-18T03:35:27.287Z,2.90
2023-01-18T03:38:13.760Z,3.00
2023-01-18T03:41:00.670Z,2.40
2023-01-18T03:43:50.312Z,2.37
2023-01-18T03:46:36.048Z,2.60
2023-01-18T03:49:21.663Z,2.20
2023-01-18T03:52:23.814Z,2.60
2023-01-18T03:55:17.020Z,2.70
2023-01-18T04:00:53.149Z,2.47
2023-01-18T04:03:38.195Z,2.60
2023-01-18T04:06:25.732Z,2.10
2023-01-18T04:09:12.058Z,2.23
2023-01-18T04:11:57.517Z,2.93
2023-01-18T04:14:42.746Z,2.57
2023-01-18T04:17:27.993Z,2.10
2023-01-18T04:20:13.442Z,2.70
2023-01-18T04:22:59.149Z,2.30
2023-01-18T04:25:50.055Z,2.47
2023-01-18T04:28:35.299Z,2.10
2023-01-18T04:31:20.863Z,2.33
2023-01-18T04:34:05.926Z,2.30
2023-01-18T04:36:51.817Z,2.50
2023-01-18T04:39:37.222Z,2.33
2023-01-18T04:42:22.768Z,2.60
2023-01-18T04:45:08.993Z,2.70
2023-01-18T04:47:54.543Z,2.70
2023-01-18T04:50:39.981Z,2.70
2023-01-18T04:53:25.377Z,2.80
2023-01-18T04:56:11.222Z,2.57
2023-01-18T05:04:17.925Z,2.90
2023-01-18T05:07:02.613Z,2.30
2023-01-18T05:09:46.981Z,2.63
2023-01-18T05:12:31.659Z,2.50
2023-01-18T05:15:17.599Z,2.73
2023-01-18T05:18:02.499Z,2.53
2023-01-18T05:20:47.811Z,2.63
2023-01-18T05:28:56.716Z,2.70
2023-01-18T05:31:41.278Z,2.43
2023-01-18T05:34:26.507Z,2.73
2023-01-18T05:37:11.402Z,2.67
2023-01-18T05:39:57.048Z,2.73
2023-01-18T05:42:42.726Z,3.40
2023-01-18T05:45:28.094Z,3.13
2023-01-18T05:48:13.348Z,3.10
2023-01-18T05:50:58.791Z,2.73
2023-01-18T05:53:44.125Z,2.77
2023-01-18T05:56:29.401Z,3.00
2023-01-18T05:59:15.678Z,2.77
2023-01-18T06:02:01.104Z,3.47
2023-01-18T06:04:47.636Z,2.47
2023-01-18T06:07:33.146Z,2.70
2023-01-18T06:10:18.796Z,2.53
2023-01-18T06:13:05.384Z,2.67
2023-01-18T06:15:51.893Z,2.30
2023-01-18T06:18:38.409Z,2.60
2023-01-18T06:21:23.797Z,3.77
2023-01-18T06:24:08.989Z,3.20
2023-01-18T06:26:54.261Z,5.40
2023-01-18T06:29:39.362Z,7.63
2023-01-18T06:32:24.773Z,7.20
2023-01-18T06:35:10.131Z,6.83
2023-01-18T06:37:56.474Z,6.43
2023-01-18T06:40:41.850Z,5.97
2023-01-18T06:43:27.375Z,6.00
2023-01-18T06:46:12.956Z,6.20
2023-01-18T06:48:58.217Z,5.10
2023-01-18T06:51:43.504Z,5.83
2023-01-18T06:54:28.729Z,5.13
2023-01-18T06:57:14.133Z,5.03
2023-01-18T07:00:01.000Z,4.87
2023-01-18T07:02:46.188Z,4.90
2023-01-18T07:05:31.457Z,4.83
2023-01-18T07:08:16.721Z,4.63
2023-01-18T07:11:09.766Z,4.53
2023-01-18T07:13:55.111Z,5.23
2023-01-18T07:16:41.037Z,4.40
2023-01-18T07:19:26.129Z,4.50
2023-01-18T07:22:13.361Z,4.20
2023-01-18T07:24:58.757Z,4.70
2023-01-18T07:27:44.261Z,4.73
2023-01-18T07:30:29.721Z,4.43
2023-01-18T07:33:14.891Z,4.47
2023-01-18T07:36:00.308Z,4.90
2023-01-18T07:38:46.979Z,3.70
2023-01-18T07:41:32.705Z,4.50
2023-01-18T07:44:18.457Z,3.80
2023-01-18T07:47:03.878Z,3.93
2023-01-18T07:49:49.278Z,3.97
2023-01-18T07:52:34.807Z,4.10
2023-01-18T07:55:21.679Z,4.50
2023-01-18T07:58:07.235Z,4.37
2023-01-18T08:00:52.873Z,4.43
2023-01-18T08:03:38.914Z,3.53
2023-01-18T08:06:26.450Z,3.97
2023-01-18T08:09:11.672Z,3.83
2023-01-18T08:11:56.937Z,4.43
2023-01-18T08:14:44.845Z,5.50
2023-01-18T08:17:31.040Z,4.30
2023-01-18T08:20:16.852Z,4.40
2023-01-18T08:23:03.638Z,3.97
2023-01-18T08:25:48.673Z,4.60
2023-01-18T08:28:34.457Z,4.07
2023-01-18T08:31:21.557Z,4.07
2023-01-18T08:34:06.854Z,3.70
2023-01-18T08:36:52.245Z,4.03
2023-01-18T08:39:38.240Z,3.77
2023-01-18T08:42:23.933Z,3.83
2023-01-18T08:45:09.948Z,3.63
2023-01-18T08:48:00.892Z,3.90
2023-01-18T08:50:46.509Z,3.97
2023-01-18T08:53:32.101Z,3.60
2023-01-18T08:56:18.179Z,5.00
2023-01-18T08:59:07.904Z,5.50
2023-01-18T09:01:53.433Z,4.50
2023-01-18T09:04:38.527Z,4.73
2023-01-18T09:07:23.891Z,4.90
2023-01-18T09:10:09.791Z,3.93
2023-01-18T09:12:55.785Z,4.50
2023-01-18T09:15:41.587Z,4.17
2023-01-18T09:18:27.176Z,4.10
2023-01-18T09:21:13.519Z,3.87
2023-01-18T09:23:59.687Z,3.80
2023-01-18T09:26:46.300Z,4.50
2023-01-18T09:29:32.035Z,3.67
2023-01-18T09:32:17.235Z,3.93
2023-01-18T09:35:03.079Z,4.07
2023-01-18T09:37:48.493Z,3.83
2023-01-18T09:40:44.086Z,4.10
2023-01-18T09:43:35.110Z,4.40
2023-01-18T09:46:22.949Z,4.07
2023-01-18T09:49:18.549Z,3.33
2023-01-18T09:52:40.850Z,3.87
2023-01-18T09:55:57.537Z,4.47
2023-01-18T09:58:54.596Z,3.90
2023-01-18T10:01:40.302Z,5.10
2023-01-18T10:04:36.233Z,4.20
2023-01-18T10:07:24.266Z,4.27
2023-01-18T10:10:16.133Z,4.10
2023-01-18T10:13:27.956Z,4.10
2023-01-18T10:16:14.727Z,4.47
2023-01-18T10:19:03.025Z,4.03
2023-01-18T10:22:05.264Z,3.80
2023-01-18T10:25:21.176Z,4.20
2023-01-18T10:28:25.176Z,3.93
2023-01-18T10:31:29.465Z,3.90
2023-01-18T10:34:19.609Z,3.93
2023-01-18T10:37:14.549Z,3.93
2023-01-18T10:40:12.710Z,3.90
2023-01-18T10:43:04.073Z,4.47
2023-01-18T10:45:49.446Z,4.10
2023-01-18T10:48:34.810Z,4.00
2023-01-18T10:51:35.440Z,3.67
2023-01-18T10:54:23.135Z,3.97
2023-01-18T11:02:59.874Z,3.93
2023-01-18T11:05:45.401Z,3.50
2023-01-18T11:08:35.075Z,3.87
2023-01-18T11:11:51.715Z,4.07
2023-01-18T11:14:39.239Z,4.10
2023-01-18T11:17:24.614Z,3.90
2023-01-18T11:20:34.149Z,4.17
2023-01-18T11:23:25.472Z,4.00
2023-01-18T11:26:17.215Z,4.03
2023-01-18T11:29:05.829Z,3.80
2023-01-18T11:31:52.955Z,4.67
2023-01-18T11:34:46.404Z,4.23
2023-01-18T11:37:35.696Z,4.25
2023-01-18T11:40:21.123Z,4.10
2023-01-18T11:43:15.300Z,4.07
2023-01-18T11:46:08.842Z,3.93
2023-01-18T11:49:04.621Z,3.80
2023-01-18T11:52:00.103Z,3.83
2023-01-18T11:54:51.374Z,3.90
2023-01-18T11:57:37.134Z,4.30
2023-01-18T12:00:28.091Z,3.37
2023-01-18T12:03:25.338Z,3.50
2023-01-18T12:06:41.584Z,4.03
2023-01-18T12:09:50.957Z,3.10
2023-01-18T12:12:39.203Z,3.37
2023-01-18T12:15:57.895Z,3.70
2023-01-18T12:19:21.312Z,3.90
2023-01-18T12:22:15.798Z,3.90
2023-01-18T12:25:16.116Z,4.13
2023-01-18T12:28:39.024Z,4.60
2023-01-18T12:31:41.417Z,4.10
2023-01-18T12:35:23.624Z,3.70
2023-01-18T12:38:24.798Z,3.80
2023-01-18T12:41:21.577Z,4.27
2023-01-18T12:44:23.139Z,4.23
2023-01-18T12:47:27.426Z,3.60
2023-01-18T12:50:23.119Z,3.53
2023-01-18T12:53:31.871Z,4.20
2023-01-18T12:56:24.627Z,3.40
2023-01-18T12:59:19.727Z,3.45
2023-01-18T13:02:14.365Z,3.90
2023-01-18T13:05:10.428Z,3.60
2023-01-18T13:08:06.449Z,3.43
2023-01-18T13:11:20.977Z,3.77
2023-01-18T13:14:18.907Z,3.90
2023-01-18T13:17:22.514Z,3.83
2023-01-18T13:20:13.159Z,3.92
2023-01-18T13:23:27.026Z,3.57
2023-01-18T13:26:27.478Z,3.65
2023-01-18T13:29:22.684Z,4.83
2023-01-18T13:32:24.935Z,4.53
2023-01-18T13:35:21.726Z,3.97
2023-01-18T13:38:13.831Z,3.60
2023-01-18T13:41:06.846Z,3.80
2023-01-18T13:43:53.412Z,4.18
2023-01-18T13:46:39.502Z,3.80
2023-01-18T13:49:46.382Z,3.63
2023-01-18T13:52:42.337Z,3.90
2023-01-18T13:55:31.966Z,3.30
2023-01-18T13:58:27.637Z,3.57
2023-01-18T14:01:23.029Z,3.40
2023-01-18T14:04:29.931Z,3.67
2023-01-18T14:07:22.807Z,4.10
2023-01-18T14:10:25.419Z,4.13
2023-01-18T14:13:16.051Z,3.80
2023-01-18T14:16:02.278Z,4.00
2023-01-18T14:18:55.932Z,3.70
2023-01-18T14:22:15.662Z,4.03
2023-01-18T14:25:24.632Z,4.20
2023-01-18T14:28:17.123Z,4.00
2023-01-18T14:31:04.247Z,4.55
2023-01-18T14:33:49.977Z,3.60
2023-01-18T14:36:35.979Z,4.10
2023-01-18T14:39:21.737Z,4.07
2023-01-18T14:42:07.208Z,4.10
2023-01-18T14:44:58.650Z,3.27
2023-01-18T14:47:45.038Z,4.07
2023-01-18T14:50:34.608Z,3.90
2023-01-18T14:53:33.805Z,3.47
2023-01-18T14:56:32.099Z,3.93
2023-01-18T14:59:27.625Z,3.70
2023-01-18T15:02:19.057Z,4.33
2023-01-18T15:05:17.942Z,3.80
2023-01-18T15:08:03.742Z,3.30
2023-01-18T15:10:49.722Z,3.37
2023-01-18T15:13:57.420Z,3.57
2023-01-18T15:16:43.582Z,3.23
2023-01-18T15:19:53.046Z,3.47
2023-01-18T15:22:40.568Z,3.50
2023-01-18T15:25:27.833Z,3.20
2023-01-18T15:28:23.703Z,3.27
2023-01-18T15:31:14.755Z,3.50
2023-01-18T15:34:00.627Z,3.80
2023-01-18T15:36:46.766Z,3.40
2023-01-18T15:39:33.645Z,3.70
2023-01-18T15:42:19.604Z,3.27
2023-01-18T15:45:16.799Z,3.10
2023-01-18T15:48:10.408Z,3.20
2023-01-18T15:51:04.223Z,3.60
2023-01-18T15:53:56.096Z,3.40
2023-01-18T15:56:41.514Z,3.20
2023-01-18T15:59:28.157Z,3.13
2023-01-18T16:02:20.773Z,3.67
2023-01-18T16:05:26.030Z,3.23
2023-01-18T16:08:22.689Z,3.10
2023-01-18T16:11:27.035Z,3.50
2023-01-18T16:14:31.347Z,3.87
2023-01-18T16:17:23.628Z,4.20
2023-01-18T16:20:16.522Z,3.77
2023-01-18T16:23:16.037Z,3.42
2023-01-18T16:26:04.572Z,3.50
2023-01-18T16:28:51.642Z,3.83
2023-01-18T16:31:41.454Z,3.70
2023-01-18T16:34:27.462Z,3.37
2023-01-18T16:37:13.390Z,3.13
2023-01-18T16:39:58.602Z,3.27
2023-01-18T16:42:58.655Z,3.67
2023-01-18T16:45:45.507Z,3.13
2023-01-18T16:48:33.634Z,3.30
2023-01-18T16:51:19.473Z,3.17
2023-01-18T16:54:05.508Z,3.23
2023-01-18T16:56:51.076Z,3.30
2023-01-18T16:59:36.255Z,3.20
2023-01-18T17:02:22.066Z,3.20
2023-01-18T17:05:08.486Z,2.87
2023-01-18T17:07:54.272Z,2.97
2023-01-18T17:10:42.694Z,3.10
2023-01-18T17:13:27.943Z,2.67
2023-01-18T17:16:16.858Z,2.90
2023-01-18T17:19:02.634Z,2.70
2023-01-18T17:21:50.614Z,3.00
2023-01-18T17:24:36.807Z,2.70
2023-01-18T17:27:22.236Z,2.93
2023-01-18T17:30:08.675Z,3.10
2023-01-18T17:32:54.736Z,2.90
2023-01-18T17:35:40.401Z,2.90
2023-01-18T17:38:30.265Z,3.03
2023-01-18T17:41:29.119Z,2.60
2023-01-18T17:44:15.200Z,2.63
2023-01-18T17:47:00.961Z,3.00
2023-01-18T17:49:46.213Z,2.57
2023-01-18T17:52:31.881Z,2.53
2023-01-18T17:55:24.293Z,3.07
2023-01-18T17:58:13.188Z,2.83
2023-01-18T18:01:11.612Z,2.63
2023-01-18T18:03:56.996Z,2.33
2023-01-18T18:06:49.753Z,2.50
2023-01-18T18:09:40.752Z,2.83
2023-01-18T18:12:29.521Z,2.57
2023-01-18T18:15:15.310Z,2.57
2023-01-18T18:18:01.212Z,2.70
2023-01-18T18:20:46.378Z,2.50
2023-01-18T18:23:32.678Z,2.60
2023-01-18T18:26:18.203Z,2.20
2023-01-18T18:29:04.396Z,2.47
2023-01-18T18:31:49.780Z,2.27
2023-01-18T18:34:38.039Z,2.30
2023-01-18T18:37:23.600Z,2.30
2023-01-18T18:40:09.378Z,2.27
2023-01-18T18:43:02.487Z,2.37
2023-01-18T18:45:48.674Z,2.37
2023-01-18T18:48:33.980Z,2.50
2023-01-18T18:51:20.728Z,2.50
2023-01-18T18:54:06.453Z,2.40
2023-01-18T18:56:51.789Z,2.40
2023-01-18T18:59:37.563Z,2.43
2023-01-18T19:02:23.630Z,2.00
2023-01-18T19:05:11.228Z,2.03
2023-01-18T19:07:57.138Z,2.00
2023-01-18T19:10:42.767Z,2.00
2023-01-18T19:13:29.489Z,2.03
2023-01-18T19:16:15.495Z,2.30
2023-01-18T19:19:03.067Z,1.87
2023-01-18T19:21:50.386Z,1.90
2023-01-18T19:24:37.204Z,2.30
2023-01-18T19:27:25.186Z,1.87
2023-01-18T19:30:19.376Z,2.00
2023-01-18T19:33:09.260Z,1.80
2023-01-18T19:35:56.417Z,2.10
2023-01-18T19:38:49.196Z,1.80
2023-01-18T19:41:50.777Z,1.70
2023-01-18T19:44:37.568Z,1.90
2023-01-18T19:47:26.460Z,2.00
2023-01-18T19:50:14.981Z,2.00
2023-01-18T19:53:03.655Z,1.67
2023-01-18T19:55:56.906Z,1.67
2023-01-18T19:58:47.423Z,1.97
2023-01-18T20:01:37.264Z,1.73
2023-01-18T20:04:24.411Z,1.70
2023-01-18T20:07:13.299Z,1.93
2023-01-18T20:09:59.562Z,1.60
2023-01-18T20:12:45.237Z,2.00
2023-01-18T20:15:30.928Z,2.10
2023-01-18T20:18:16.357Z,1.77
2023-01-18T20:21:10.700Z,1.93
2023-01-18T20:23:57.826Z,1.77
2023-01-18T20:26:43.979Z,1.57
2023-01-18T20:29:30.664Z,1.60
2023-01-18T20:32:18.013Z,1.50
2023-01-18T20:35:03.789Z,1.90
2023-01-18T20:37:49.302Z,1.80
2023-01-18T20:40:35.009Z,1.80
2023-01-18T20:43:21.211Z,1.77
2023-01-18T20:46:10.149Z,1.73
2023-01-18T20:48:55.543Z,1.67
2023-01-18T20:51:41.001Z,1.73
2023-01-18T20:54:26.450Z,1.60
2023-01-18T20:57:11.805Z,1.70
2023-01-18T20:59:58.103Z,1.57
2023-01-18T21:02:43.853Z,1.67
2023-01-18T21:05:29.834Z,1.60
2023-01-18T21:08:17.397Z,1.90
2023-01-18T21:11:02.954Z,1.80
2023-01-18T21:13:49.532Z,1.50
2023-01-18T21:16:35.034Z,2.00
2023-01-18T21:19:22.768Z,1.70
2023-01-18T21:22:08.247Z,1.90
2023-01-18T21:24:53.507Z,1.70
2023-01-18T21:27:43.199Z,2.00
2023-01-18T21:30:28.760Z,1.80
2023-01-18T21:33:14.138Z,1.63
2023-01-18T21:36:05.375Z,1.57
2023-01-18T21:38:51.173Z,1.80
2023-01-18T21:41:55.065Z,1.37
2023-01-18T21:47:44.003Z,1.63
2023-01-18T21:50:47.881Z,1.60
2023-01-18T21:56:37.334Z,1.60
2023-01-18T21:59:22.881Z,1.70
2023-01-18T22:02:09.836Z,2.00
2023-01-18T22:04:59.276Z,1.70
2023-01-18T22:07:44.740Z,1.67
2023-01-18T22:10:30.246Z,1.80
2023-01-18T22:13:16.374Z,1.80
2023-01-18T22:16:07.032Z,1.80
2023-01-18T22:18:52.269Z,1.80
2023-01-18T22:21:37.748Z,1.73
2023-01-18T22:24:23.135Z,1.90
2023-01-18T22:27:08.426Z,1.90
2023-01-18T22:29:53.628Z,1.70
2023-01-18T22:32:39.163Z,1.77
2023-01-18T22:35:24.651Z,1.67
2023-01-18T22:38:11.194Z,2.17
2023-01-18T22:41:09.033Z,1.70
2023-01-18T22:43:55.085Z,1.70
2023-01-18T22:46:40.700Z,1.80
2023-01-18T22:49:26.265Z,1.90
2023-01-18T22:52:11.612Z,1.90
2023-01-18T22:54:56.833Z,1.80
2023-01-18T22:57:42.341Z,1.47
2023-01-18T23:00:27.945Z,1.80
2023-01-18T23:03:13.593Z,1.73
2023-01-18T23:06:00.467Z,1.70
2023-01-18T23:08:47.266Z,1.70
2023-01-18T23:11:32.538Z,1.70
2023-01-18T23:14:36.862Z,1.73
2023-01-18T23:17:40.687Z,1.73
2023-01-18T23:23:11.474Z,1.60
2023-01-18T23:25:58.109Z,1.90
2023-01-18T23:28:43.785Z,1.50
2023-01-18T23:31:29.080Z,1.90
2023-01-18T23:34:14.425Z,1.57
2023-01-18T23:36:59.592Z,1.57
2023-01-18T23:40:03.398Z,1.43
2023-01-18T23:43:07.165Z,1.47
2023-01-18T23:46:11.196Z,1.70
2023-01-18T23:49:15.069Z,1.70
2023-01-18T23:52:18.624Z,1.63
2023-01-18T23:55:04.894Z,1.55
2023-01-18T23:57:50.313Z,1.67
